createdAt,value
2023-01-13T00:00:41.172Z,2.40
2023-01-13T00:03:08.356Z,2.80
2023-01-13T00:05:36.133Z,2.97
2023-01-13T00:08:05.204Z,2.90
2023-01-13T00:10:36.107Z,3.10
2023-01-13T00:13:04.349Z,2.90
2023-01-13T00:15:32.374Z,2.87
2023-01-13T00:18:00.350Z,3.13
2023-01-13T00:20:27.441Z,2.33
2023-01-13T00:22:56.943Z,3.00
2023-01-13T00:25:24.467Z,3.00
2023-01-13T00:27:52.173Z,3.07
2023-01-13T00:30:20.264Z,2.97
2023-01-13T00:32:47.452Z,2.43
2023-01-13T00:35:14.864Z,2.80
2023-01-13T00:37:42.191Z,2.60
2023-01-13T00:40:09.546Z,4.93
2023-01-13T00:43:12.172Z,3.40
2023-01-13T00:45:39.613Z,2.97
2023-01-13T00:48:06.952Z,4.30
2023-01-13T00:50:34.448Z,3.27
2023-01-13T00:53:02.036Z,2.80
2023-01-13T00:55:31.784Z,3.33
2023-01-13T00:58:03.953Z,2.80
2023-01-13T01:00:32.022Z,2.60
2023-01-13T01:02:59.249Z,2.53
2023-01-13T01:05:26.425Z,2.30
2023-01-13T01:07:54.012Z,2.37
2023-01-13T01:10:21.141Z,2.33
2023-01-13T01:12:48.568Z,2.80
2023-01-13T01:15:16.081Z,2.57
2023-01-13T01:17:42.941Z,2.83
2023-01-13T01:20:10.348Z,1.93
2023-01-13T01:22:38.182Z,2.20
2023-01-13T01:25:06.087Z,1.70
2023-01-13T01:27:34.818Z,2.57
2023-01-13T01:30:01.945Z,2.90
2023-01-13T01:32:28.900Z,3.03
2023-01-13T01:34:56.109Z,4.47
2023-01-13T01:37:23.390Z,3.07
2023-01-13T01:39:50.586Z,3.53
2023-01-13T01:42:37.877Z,2.40
2023-01-13T01:45:14.814Z,2.20
2023-01-13T01:47:42.781Z,2.43
2023-01-13T01:50:10.393Z,2.47
2023-01-13T01:52:40.805Z,2.57
2023-01-13T01:55:11.696Z,1.87
2023-01-13T01:57:45.132Z,2.27
2023-01-13T02:00:13.214Z,2.33
2023-01-13T02:02:40.786Z,2.30
2023-01-13T02:05:08.065Z,2.03
2023-01-13T02:07:37.222Z,2.20
2023-01-13T02:10:06.455Z,2.17
2023-01-13T02:12:34.269Z,1.83
2023-01-13T02:15:09.187Z,2.60
2023-01-13T02:17:37.225Z,1.97
2023-01-13T02:20:26.262Z,2.30
2023-01-13T02:23:05.314Z,2.50
2023-01-13T02:25:50.153Z,2.47
2023-01-13T02:28:35.896Z,2.60
2023-01-13T02:31:33.020Z,3.10
2023-01-13T02:34:00.560Z,2.90
2023-01-13T02:36:35.234Z,2.93
2023-01-13T02:39:19.499Z,2.27
2023-01-13T02:42:11.468Z,2.27
2023-01-13T02:44:44.959Z,2.60
2023-01-13T02:47:16.194Z,2.67
2023-01-13T02:50:03.527Z,3.00
2023-01-13T02:52:51.192Z,2.50
2023-01-13T02:55:30.974Z,3.10
2023-01-13T02:57:59.849Z,2.80
2023-01-13T03:00:28.138Z,3.20
2023-01-13T03:02:55.726Z,3.27
2023-01-13T03:05:23.344Z,3.07
2023-01-13T03:07:53.835Z,2.30
2023-01-13T03:10:33.532Z,2.70
2023-01-13T03:13:20.646Z,2.80
2023-01-13T03:16:06.484Z,2.13
2023-01-13T03:19:01.464Z,2.37
2023-01-13T03:21:37.379Z,2.50
2023-01-13T03:24:09.137Z,2.20
2023-01-13T03:26:44.796Z,2.40
2023-01-13T03:29:45.765Z,2.40
2023-01-13T03:32:27.834Z,2.70
2023-01-13T03:35:03.829Z,2.53
2023-01-13T03:37:35.107Z,2.97
2023-01-13T03:40:04.385Z,2.53
2023-01-13T03:42:32.553Z,3.20
2023-01-13T03:45:14.440Z,2.40
2023-01-13T03:48:07.615Z,2.63
2023-01-13T03:50:38.290Z,2.70
2023-01-13T03:53:07.565Z,2.97
2023-01-13T03:55:36.678Z,4.20
2023-01-13T03:58:14.441Z,2.57
2023-01-13T04:01:01.703Z,3.10
2023-01-13T04:03:38.369Z,2.40
2023-01-13T04:06:12.765Z,2.43
2023-01-13T04:08:42.359Z,2.97
2023-01-13T04:11:15.671Z,2.73
2023-01-13T04:13:43.702Z,2.10
2023-01-13T04:16:11.622Z,2.67
2023-01-13T04:18:39.527Z,2.70
2023-01-13T04:21:06.729Z,2.77
2023-01-13T04:23:33.740Z,2.90
2023-01-13T04:26:00.590Z,2.40
2023-01-13T04:28:27.993Z,2.30
2023-01-13T04:30:54.920Z,2.43
2023-01-13T04:33:21.888Z,2.30
2023-01-13T04:35:48.933Z,2.60
2023-01-13T04:38:17.764Z,3.07
2023-01-13T04:40:45.001Z,3.60
2023-01-13T04:43:11.908Z,3.77
2023-01-13T04:45:39.130Z,2.83
2023-01-13T04:48:06.198Z,5.27
2023-01-13T04:50:33.278Z,3.60
2023-01-13T04:53:01.397Z,3.27
2023-01-13T04:55:28.635Z,2.83
2023-01-13T04:57:55.475Z,3.23
2023-01-13T05:00:23.312Z,3.27
2023-01-13T05:02:51.071Z,2.70
2023-01-13T05:05:18.158Z,3.17
2023-01-13T05:07:45.053Z,2.50
2023-01-13T05:10:12.083Z,3.30
2023-01-13T05:12:57.395Z,2.40
2023-01-13T05:15:42.536Z,2.67
2023-01-13T05:18:09.688Z,2.90
2023-01-13T05:20:36.559Z,2.43
2023-01-13T05:23:22.337Z,2.00
2023-01-13T05:25:49.775Z,2.50
2023-01-13T05:28:16.793Z,2.33
2023-01-13T05:30:46.165Z,2.43
2023-01-13T05:33:14.929Z,2.60
2023-01-13T05:35:42.812Z,2.57
2023-01-13T05:38:09.647Z,2.57
2023-01-13T05:40:57.445Z,2.70
2023-01-13T05:43:25.277Z,2.30
2023-01-13T05:45:52.062Z,2.40
2023-01-13T05:48:19.808Z,2.77
2023-01-13T05:50:47.035Z,2.60
2023-01-13T05:53:14.034Z,2.80
2023-01-13T05:55:42.021Z,2.90
2023-01-13T05:58:09.857Z,3.17
2023-01-13T06:00:36.729Z,2.57
2023-01-13T06:03:04.120Z,3.53
2023-01-13T06:05:31.379Z,2.67
2023-01-13T06:07:58.579Z,2.73
2023-01-13T06:10:26.447Z,2.77
2023-01-13T06:12:53.221Z,2.30
2023-01-13T06:15:20.441Z,3.43
2023-01-13T06:17:47.280Z,3.33
2023-01-13T06:20:14.921Z,2.90
2023-01-13T06:22:43.355Z,3.50
2023-01-13T06:25:13.827Z,2.93
2023-01-13T06:27:40.899Z,3.60
2023-01-13T06:30:08.737Z,3.43
2023-01-13T06:32:39.289Z,2.87
2023-01-13T06:35:08.408Z,2.80
2023-01-13T06:37:36.050Z,3.10
2023-01-13T06:40:04.190Z,2.47
2023-01-13T06:42:52.030Z,2.70
2023-01-13T06:45:19.304Z,2.57
2023-01-13T06:47:46.275Z,2.53
2023-01-13T06:50:13.227Z,2.10
2023-01-13T06:52:40.059Z,1.97
2023-01-13T06:55:07.283Z,1.80
2023-01-13T06:57:34.063Z,2.00
2023-01-13T07:00:00.925Z,1.63
2023-01-13T07:02:28.635Z,1.80
2023-01-13T07:04:55.626Z,2.10
2023-01-13T07:07:22.582Z,2.07
2023-01-13T07:09:49.347Z,1.90
2023-01-13T07:12:16.205Z,2.40
2023-01-13T07:15:01.627Z,1.37
2023-01-13T07:17:29.212Z,1.80
2023-01-13T07:19:56.054Z,1.60
2023-01-13T07:22:22.917Z,1.87
2023-01-13T07:24:49.798Z,1.70
2023-01-13T07:27:16.719Z,1.70
2023-01-13T07:29:44.243Z,1.97
2023-01-13T07:32:11.221Z,2.27
2023-01-13T07:34:38.093Z,2.27
2023-01-13T07:37:04.901Z,2.00
2023-01-13T07:39:32.129Z,1.83
2023-01-13T07:42:17.522Z,1.80
2023-01-13T07:44:45.094Z,1.83
2023-01-13T07:47:12.134Z,1.70
2023-01-13T07:49:39.091Z,2.20
2023-01-13T07:52:06.195Z,1.67
2023-01-13T07:54:40.696Z,1.90
2023-01-13T07:57:09.633Z,2.20
2023-01-13T07:59:37.046Z,1.40
2023-01-13T08:02:04.296Z,1.33
2023-01-13T08:04:31.256Z,2.07
2023-01-13T08:06:58.198Z,1.20
2023-01-13T08:09:25.025Z,1.27
2023-01-13T08:12:14.268Z,2.33
2023-01-13T08:14:41.161Z,1.87
2023-01-13T08:17:08.411Z,1.97
2023-01-13T08:19:35.693Z,1.73
2023-01-13T08:22:02.562Z,2.23
2023-01-13T08:24:32.677Z,2.33
2023-01-13T08:26:59.608Z,1.63
2023-01-13T08:29:26.469Z,2.10
2023-01-13T08:31:53.401Z,2.13
2023-01-13T08:34:20.285Z,1.90
2023-01-13T08:36:49.293Z,1.60
2023-01-13T08:39:16.347Z,1.80
2023-01-13T08:41:55.950Z,1.73
2023-01-13T08:44:23.483Z,1.53
2023-01-13T08:46:50.296Z,0.90
2023-01-13T08:49:18.125Z,1.23
2023-01-13T08:51:45.171Z,0.83
2023-01-13T08:54:12.414Z,2.10
2023-01-13T08:56:40.636Z,2.10
2023-01-13T08:59:10.307Z,1.40
2023-01-13T09:01:39.617Z,1.97
2023-01-13T09:04:17.830Z,1.77
2023-01-13T09:06:45.178Z,2.03
2023-01-13T09:09:12.396Z,1.90
2023-01-13T09:11:58.873Z,2.10
2023-01-13T09:14:26.916Z,1.93
2023-01-13T09:16:53.824Z,1.20
2023-01-13T09:19:20.712Z,2.20
2023-01-13T09:21:47.840Z,2.47
2023-01-13T09:24:15.032Z,1.50
2023-01-13T09:26:41.926Z,3.03
2023-01-13T09:29:08.842Z,2.23
2023-01-13T09:31:35.704Z,2.17
2023-01-13T09:34:21.724Z,2.83
2023-01-13T09:36:48.585Z,2.37
2023-01-13T09:39:15.535Z,1.77
2023-01-13T09:42:06.061Z,3.37
2023-01-13T09:44:53.322Z,2.17
2023-01-13T09:47:27.929Z,2.53
2023-01-13T09:49:58.509Z,2.10
2023-01-13T09:52:27.081Z,1.70
2023-01-13T09:54:58.029Z,2.93
2023-01-13T09:57:26.993Z,2.40
2023-01-13T09:59:54.347Z,2.87
2023-01-13T10:02:21.107Z,1.70
2023-01-13T10:05:06.681Z,2.90
2023-01-13T10:07:35.018Z,2.37
2023-01-13T10:10:02.945Z,2.60
2023-01-13T10:12:49.485Z,2.13
2023-01-13T10:15:18.171Z,2.33
2023-01-13T10:17:47.657Z,2.57
2023-01-13T10:20:17.878Z,2.70
2023-01-13T10:22:44.979Z,1.80
2023-01-13T10:25:12.032Z,2.63
2023-01-13T10:27:39.704Z,2.53
2023-01-13T10:30:13.566Z,2.90
2023-01-13T10:32:43.247Z,2.17
2023-01-13T10:35:10.393Z,2.60
2023-01-13T10:37:37.208Z,2.23
2023-01-13T10:40:04.991Z,0.93
2023-01-13T10:42:31.952Z,1.70
2023-01-13T10:44:59.893Z,2.07
2023-01-13T10:47:29.685Z,1.53
2023-01-13T10:50:00.317Z,2.60
2023-01-13T10:52:29.056Z,2.73
2023-01-13T10:54:56.711Z,1.10
2023-01-13T10:57:25.463Z,2.47
2023-01-13T10:59:53.324Z,1.63
2023-01-13T11:02:26.733Z,2.60
2023-01-13T11:04:53.956Z,2.13
2023-01-13T11:07:20.751Z,1.90
2023-01-13T11:09:47.755Z,1.33
2023-01-13T11:12:34.807Z,2.10
2023-01-13T11:15:04.227Z,1.37
2023-01-13T11:17:38.766Z,1.60
2023-01-13T11:20:11.487Z,2.67
2023-01-13T11:22:47.065Z,1.67
2023-01-13T11:25:21.810Z,1.90
2023-01-13T11:28:04.296Z,1.50
2023-01-13T11:30:34.295Z,0.80
2023-01-13T11:33:10.367Z,1.67
2023-01-13T11:35:55.472Z,1.70
2023-01-13T11:38:38.615Z,1.47
2023-01-13T11:41:13.075Z,1.90
2023-01-13T11:43:39.937Z,1.93
2023-01-13T11:46:09.243Z,2.07
2023-01-13T11:48:37.864Z,2.67
2023-01-13T11:51:16.363Z,2.17
2023-01-13T11:54:01.340Z,1.43
2023-01-13T11:56:47.803Z,2.00
2023-01-13T11:59:32.957Z,1.67
2023-01-13T12:02:12.380Z,1.90
2023-01-13T12:04:39.260Z,2.00
2023-01-13T12:07:22.880Z,1.80
2023-01-13T12:09:50.154Z,1.20
2023-01-13T12:12:27.621Z,1.50
2023-01-13T12:14:57.368Z,2.17
2023-01-13T12:17:34.741Z,2.37
2023-01-13T12:20:09.565Z,2.00
2023-01-13T12:22:37.187Z,1.83
2023-01-13T12:25:15.185Z,1.93
2023-01-13T12:27:47.287Z,1.43
2023-01-13T12:30:37.204Z,1.53
2023-01-13T12:33:13.563Z,1.40
2023-01-13T12:35:42.618Z,1.43
2023-01-13T12:38:17.185Z,0.70
2023-01-13T12:40:48.380Z,2.03
2023-01-13T12:43:38.106Z,2.50
2023-01-13T12:46:21.597Z,1.50
2023-01-13T12:48:54.940Z,1.33
2023-01-13T12:51:42.020Z,1.30
2023-01-13T12:54:29.137Z,1.37
2023-01-13T12:56:57.030Z,2.20
2023-01-13T12:59:24.026Z,0.63
2023-01-13T13:01:52.305Z,2.30
2023-01-13T13:04:42.089Z,3.07
2023-01-13T13:07:10.660Z,2.37
2023-01-13T13:09:43.092Z,2.30
2023-01-13T13:12:47.728Z,2.43
2023-01-13T13:15:21.957Z,2.10
2023-01-13T13:17:57.812Z,2.20
2023-01-13T13:20:43.486Z,3.30
2023-01-13T13:23:29.682Z,3.90
2023-01-13T13:26:24.882Z,3.17
2023-01-13T13:29:01.581Z,2.73
2023-01-13T13:31:31.509Z,2.80
2023-01-13T13:34:12.945Z,2.70
2023-01-13T13:36:58.731Z,3.37
2023-01-13T13:39:48.825Z,3.70
2023-01-13T13:42:37.395Z,3.20
2023-01-13T13:45:32.639Z,3.10
2023-01-13T13:48:00.379Z,3.33
2023-01-13T13:50:30.049Z,3.17
2023-01-13T13:53:04.183Z,3.70
2023-01-13T13:55:31.966Z,3.47
2023-01-13T13:57:59.343Z,4.37
2023-01-13T14:00:27.718Z,3.63
2023-01-13T14:03:06.150Z,3.80
2023-01-13T14:05:37.231Z,3.50
2023-01-13T14:08:10.481Z,4.03
2023-01-13T14:10:38.466Z,4.20
2023-01-13T14:13:14.516Z,4.43
2023-01-13T14:15:41.537Z,3.60
2023-01-13T14:18:16.169Z,4.60
2023-01-13T14:20:43.513Z,4.17
2023-01-13T14:23:17.658Z,3.87
2023-01-13T14:25:48.913Z,3.60
2023-01-13T14:28:29.325Z,3.87
2023-01-13T14:30:56.946Z,4.10
2023-01-13T14:33:27.089Z,4.20
2023-01-13T14:36:13.803Z,3.57
2023-01-13T14:38:41.417Z,4.10
2023-01-13T14:41:23.720Z,3.80
2023-01-13T14:43:52.144Z,3.43
2023-01-13T14:46:21.218Z,3.90
2023-01-13T14:48:48.534Z,3.80
2023-01-13T14:51:23.279Z,3.57
2023-01-13T14:53:50.742Z,3.27
2023-01-13T14:56:36.427Z,3.13
2023-01-13T14:59:21.632Z,4.23
2023-01-13T15:01:48.808Z,3.97
2023-01-13T15:04:17.769Z,4.03
2023-01-13T15:06:48.856Z,3.90
2023-01-13T15:09:23.747Z,3.70
2023-01-13T15:11:50.703Z,4.50
2023-01-13T15:14:23.323Z,4.60
2023-01-13T15:16:50.446Z,3.93
2023-01-13T15:19:17.288Z,3.57
2023-01-13T15:21:44.216Z,4.13
2023-01-13T15:24:11.086Z,4.23
2023-01-13T15:26:37.978Z,3.80
2023-01-13T15:29:05.547Z,4.23
2023-01-13T15:31:32.526Z,4.03
2023-01-13T15:34:00.622Z,4.10
2023-01-13T15:36:34.503Z,4.20
2023-01-13T15:39:01.914Z,4.20
2023-01-13T15:41:47.304Z,4.40
2023-01-13T15:44:36.011Z,4.00
2023-01-13T15:47:04.611Z,4.33
2023-01-13T15:49:37.249Z,4.23
2023-01-13T15:52:05.423Z,4.37
2023-01-13T15:54:32.400Z,4.67
2023-01-13T15:56:59.182Z,4.73
2023-01-13T15:59:27.477Z,4.57
2023-01-13T16:01:54.436Z,4.17
2023-01-13T16:04:21.373Z,5.40
2023-01-13T16:06:48.147Z,3.63
2023-01-13T16:09:15.488Z,4.53
2023-01-13T16:11:42.304Z,4.47
2023-01-13T16:14:09.131Z,6.00
2023-01-13T16:16:36.807Z,4.63
2023-01-13T16:19:03.601Z,5.03
2023-01-13T16:21:30.570Z,4.97
2023-01-13T16:23:57.712Z,5.43
2023-01-13T16:26:25.939Z,5.57
2023-01-13T16:28:54.673Z,5.17
2023-01-13T16:31:24.516Z,5.40
2023-01-13T16:33:51.955Z,5.00
2023-01-13T16:36:20.602Z,5.47
2023-01-13T16:38:47.911Z,5.70
2023-01-13T16:41:15.010Z,5.97
2023-01-13T16:43:42.116Z,5.93
2023-01-13T16:46:16.338Z,4.90
2023-01-13T16:48:43.282Z,5.50
2023-01-13T16:51:10.124Z,4.67
2023-01-13T16:53:36.993Z,7.10
2023-01-13T16:56:03.954Z,5.97
2023-01-13T16:58:30.731Z,6.20
2023-01-13T17:00:57.717Z,6.37
2023-01-13T17:03:24.536Z,6.17
2023-01-13T17:05:51.492Z,6.87
2023-01-13T17:08:19.157Z,6.13
2023-01-13T17:10:46.200Z,8.70
2023-01-13T17:13:16.462Z,7.43
2023-01-13T17:15:44.583Z,7.40
2023-01-13T17:18:13.592Z,7.50
2023-01-13T17:20:40.907Z,9.07
2023-01-13T17:23:07.750Z,7.17
2023-01-13T17:25:34.705Z,9.13
2023-01-13T17:28:01.479Z,7.83
2023-01-13T17:30:28.371Z,9.93
2023-01-13T17:32:55.171Z,9.53
2023-01-13T17:35:25.144Z,8.90
2023-01-13T17:37:53.340Z,9.17
2023-01-13T17:40:20.549Z,8.73
2023-01-13T17:42:47.446Z,8.40
2023-01-13T17:45:14.296Z,9.60
2023-01-13T17:47:41.190Z,9.30
2023-01-13T17:50:08.267Z,9.37
2023-01-13T17:52:35.309Z,8.30
2023-01-13T17:55:02.073Z,8.87
2023-01-13T17:57:28.987Z,9.23
2023-01-13T17:59:55.878Z,8.87
2023-01-13T18:02:22.964Z,8.37
2023-01-13T18:04:49.776Z,9.03
2023-01-13T18:07:16.578Z,8.60
2023-01-13T18:09:43.493Z,8.77
2023-01-13T18:12:10.748Z,8.47
2023-01-13T18:14:37.702Z,9.10
2023-01-13T18:17:04.657Z,7.77
2023-01-13T18:19:50.204Z,8.10
2023-01-13T18:22:40.211Z,8.43
2023-01-13T18:25:29.898Z,6.13
2023-01-13T18:27:57.695Z,7.70
2023-01-13T18:30:24.465Z,6.07
2023-01-13T18:32:51.413Z,9.00
2023-01-13T18:35:18.197Z,7.10
2023-01-13T18:37:45.226Z,7.30
2023-01-13T18:40:12.883Z,7.20
2023-01-13T18:42:51.791Z,6.97
2023-01-13T18:45:24.406Z,7.93
2023-01-13T18:47:51.521Z,6.47
2023-01-13T18:50:19.462Z,7.07
2023-01-13T18:52:47.211Z,7.40
2023-01-13T18:55:14.219Z,7.63
2023-01-13T18:57:41.286Z,6.90
2023-01-13T19:00:13.257Z,7.80
2023-01-13T19:02:41.096Z,8.43
2023-01-13T19:05:09.062Z,7.47
2023-01-13T19:07:36.564Z,8.50
2023-01-13T19:10:05.336Z,7.93
2023-01-13T19:12:33.881Z,8.17
2023-01-13T19:15:02.609Z,8.53
2023-01-13T19:17:33.841Z,7.80
2023-01-13T19:20:00.905Z,7.87
2023-01-13T19:22:30.521Z,9.20
2023-01-13T19:24:58.626Z,8.90
2023-01-13T19:27:27.535Z,9.00
2023-01-13T19:29:57.672Z,8.97
2023-01-13T19:32:24.885Z,9.20
2023-01-13T19:34:51.807Z,8.00
2023-01-13T19:37:19.566Z,8.73
2023-01-13T19:39:46.952Z,8.73
2023-01-13T19:42:32.615Z,9.70
2023-01-13T19:45:17.905Z,9.10
2023-01-13T19:47:46.097Z,8.93
2023-01-13T19:50:13.874Z,8.87
2023-01-13T19:52:41.869Z,8.63
2023-01-13T19:55:10.153Z,8.10
2023-01-13T19:57:38.298Z,7.77
2023-01-13T20:00:07.289Z,9.40
2023-01-13T20:02:45.305Z,9.83
2023-01-13T20:05:18.016Z,9.33
2023-01-13T20:07:45.114Z,9.43
2023-01-13T20:10:13.486Z,9.03
2023-01-13T20:12:42.030Z,8.53
2023-01-13T20:15:09.473Z,8.80
2023-01-13T20:17:36.349Z,9.73
2023-01-13T20:20:04.670Z,9.37
2023-01-13T20:22:32.375Z,8.83
2023-01-13T20:24:59.125Z,9.23
2023-01-13T20:27:26.965Z,8.83
2023-01-13T20:29:54.499Z,8.87
2023-01-13T20:32:21.909Z,10.83
2023-01-13T20:34:49.212Z,10.73
2023-01-13T20:37:16.988Z,9.40
2023-01-13T20:39:47.736Z,10.67
2023-01-13T20:42:30.494Z,11.37
2023-01-13T20:44:58.103Z,11.00
2023-01-13T20:47:26.498Z,10.67
2023-01-13T20:49:53.860Z,9.67
2023-01-13T20:52:21.286Z,10.53
2023-01-13T20:54:48.343Z,10.13
2023-01-13T20:57:15.417Z,10.37
2023-01-13T20:59:42.816Z,10.33
2023-01-13T21:02:14.488Z,10.03
2023-01-13T21:04:42.258Z,10.03
2023-01-13T21:07:09.766Z,10.03
2023-01-13T21:09:36.867Z,10.57
2023-01-13T21:12:23.351Z,9.33
2023-01-13T21:15:08.739Z,9.27
2023-01-13T21:17:54.167Z,10.00
2023-01-13T21:20:21.861Z,9.17
2023-01-13T21:22:49.114Z,8.67
2023-01-13T21:25:17.513Z,8.37
2023-01-13T21:27:45.022Z,8.47
2023-01-13T21:30:16.119Z,8.97
2023-01-13T21:32:44.365Z,7.97
2023-01-13T21:35:11.820Z,8.00
2023-01-13T21:37:38.827Z,8.63
2023-01-13T21:40:06.929Z,9.40
2023-01-13T21:42:52.291Z,9.33
2023-01-13T21:45:37.949Z,9.07
2023-01-13T21:48:05.462Z,9.37
2023-01-13T21:50:33.011Z,9.30
2023-01-13T21:53:00.159Z,8.43
2023-01-13T21:55:28.893Z,9.37
2023-01-13T21:57:57.717Z,9.27
2023-01-13T22:00:26.227Z,9.60
2023-01-13T22:02:53.787Z,10.17
2023-01-13T22:05:21.797Z,9.00
2023-01-13T22:07:48.806Z,9.43
2023-01-13T22:10:19.544Z,9.57
2023-01-13T22:12:48.062Z,9.40
2023-01-13T22:15:17.035Z,9.30
2023-01-13T22:17:45.826Z,8.50
2023-01-13T22:20:13.422Z,8.97
2023-01-13T22:22:41.377Z,9.03
2023-01-13T22:25:10.147Z,8.40
2023-01-13T22:27:41.157Z,8.17
2023-01-13T22:30:09.908Z,8.43
2023-01-13T22:32:40.342Z,9.13
2023-01-13T22:35:08.761Z,7.47
2023-01-13T22:37:36.265Z,8.63
2023-01-13T22:40:04.542Z,7.77
2023-01-13T22:42:32.090Z,7.87
2023-01-13T22:44:59.117Z,7.97
2023-01-13T22:47:26.758Z,7.10
2023-01-13T22:49:54.480Z,8.07
2023-01-13T22:52:22.527Z,7.70
2023-01-13T22:54:49.334Z,8.73
2023-01-13T22:57:16.576Z,6.93
2023-01-13T22:59:43.930Z,9.30
2023-01-13T23:02:11.441Z,8.00
2023-01-13T23:04:38.769Z,9.47
2023-01-13T23:07:05.698Z,7.63
2023-01-13T23:09:33.144Z,7.00
2023-01-13T23:12:00.181Z,6.93
2023-01-13T23:14:27.110Z,6.73
2023-01-13T23:16:54.822Z,7.93
2023-01-13T23:19:22.595Z,6.63
2023-01-13T23:21:50.489Z,6.70
2023-01-13T23:24:18.124Z,6.13
2023-01-13T23:26:45.223Z,6.73
2023-01-13T23:29:13.415Z,5.57
2023-01-13T23:31:40.730Z,6.43
2023-01-13T23:34:07.942Z,6.17
2023-01-13T23:36:37.261Z,5.17
2023-01-13T23:39:04.694Z,5.87
2023-01-13T23:41:32.015Z,5.97
2023-01-13T23:44:00.819Z,5.80
2023-01-13T23:46:29.696Z,6.20
2023-01-13T23:48:56.647Z,5.70
2023-01-13T23:51:25.651Z,6.23
2023-01-13T23:53:52.546Z,5.47
2023-01-13T23:56:21.512Z,5.67
2023-01-13T23:58:49.367Z,6.37
